Aérodrome :
LOGIN :

S'inscrire | Disclaimer

   EN    FR    IT 

 










Légende :    VFR   VFR Marginal   IFR   IFR Intensif   IFR Très Intensif
Visi : 
Plafond : 
>= 8 km
>= 3000ft
5 à 8 km
1000 à 3000 ft
1500m à 5 km
500 à 1000 ft
800 à 1500m
200 à 500 ft
< 800m
< 200 ft
Symboles :   Orages  Brouillard  Fortes neiges  Fortes précipitations  Vent > 20 kt
SIGMETs :   Divers  Orages  Givrage  Turbulence  Onde Orograph.  Cendres Volcan.






- Altitude de l'aérodrome : 3428 ft
- Code IATA : ERH


GMFK - Moulay Ali Cherif Int.

DERNIER METAR :
  • 010900Z 03002KT CAVOK 09/05 Q1025 NOSIG

METARs EXPIRÉS :
  • 010800Z VRB02KT CAVOK 05/04 Q1024 NOSIG
  • 010700Z 11002KT CAVOK 05/04 Q1024 NOSIG

TAF TAF GMFK
Valide du 01 à 06h jusqu'au 02 à 12h UTC


010500Z 0106/0212 29004KT CAVOK



MET'MAP, la Météo Aéronautique d'un coup d'oeil ! - Copyright ORBIFLY Décembre 2007 - Disclaimer

ORBIFLY MET'MAP TEAM :

Programmation & Développement : Alexandra Zaïnal
Sur une idée originale de : Baudouin d'Aumeries
Assistance à la programmation : Marc-Olivier Méhu
Soutien technique & logistique : Manuel Goepfert

Contact : metmap@orbifly.com




SOURCES & CREDITS :

   NOAA